createdAt,value
2022-11-04T00:02:13.303Z,94.13
2022-11-04T00:04:40.363Z,92.98
2022-11-04T00:07:27.178Z,93.62
2022-11-04T00:09:54.113Z,93.10
2022-11-04T00:12:27.236Z,92.72
2022-11-04T00:14:54.402Z,92.83
2022-11-04T00:17:24.387Z,94.33
2022-11-04T00:20:13.609Z,95.73
2022-11-04T00:23:00.655Z,94.86
2022-11-04T00:25:46.415Z,95.38
2022-11-04T00:28:31.524Z,95.74
2022-11-04T00:31:19.810Z,93.85
2022-11-04T00:33:47.490Z,92.12
2022-11-04T00:36:14.603Z,94.20
2022-11-04T00:38:41.410Z,94.70
2022-11-04T00:41:26.457Z,92.32
2022-11-04T00:43:58.196Z,92.33
2022-11-04T00:46:25.619Z,90.87
2022-11-04T00:48:52.774Z,90.32
2022-11-04T00:51:21.537Z,90.14
2022-11-04T00:53:49.141Z,89.32
2022-11-04T00:56:16.010Z,87.34
2022-11-04T00:58:42.898Z,88.55
2022-11-04T01:01:11.360Z,90.09
2022-11-04T01:03:38.468Z,89.63
2022-11-04T01:06:05.864Z,91.46
2022-11-04T01:08:32.726Z,95.24
2022-11-04T01:11:04.646Z,95.61
2022-11-04T01:13:32.732Z,94.21
2022-11-04T01:16:01.165Z,92.61
2022-11-04T01:18:28.447Z,93.06
2022-11-04T01:20:55.356Z,93.59
2022-11-04T01:23:22.287Z,94.26
2022-11-04T01:25:49.321Z,93.94
2022-11-04T01:28:16.273Z,95.39
2022-11-04T01:30:43.104Z,94.50
2022-11-04T01:33:09.935Z,93.49
2022-11-04T01:35:36.807Z,93.25
2022-11-04T01:38:03.888Z,92.23
2022-11-04T01:40:30.801Z,95.38
2022-11-04T01:42:57.636Z,93.22
2022-11-04T01:45:24.589Z,92.66
2022-11-04T01:48:01.591Z,92.32
2022-11-04T01:50:32.216Z,91.56
2022-11-04T01:53:02.683Z,91.07
2022-11-04T01:55:33.939Z,89.76
2022-11-04T01:58:14.389Z,88.41
2022-11-04T02:00:42.957Z,88.27
2022-11-04T02:03:18.432Z,88.96
2022-11-04T02:05:46.874Z,90.06
2022-11-04T02:08:15.439Z,94.04
2022-11-04T02:10:50.849Z,95.39
2022-11-04T02:13:18.258Z,96.25
2022-11-04T02:15:45.055Z,95.56
2022-11-04T02:19:06.174Z,95.58
2022-11-04T02:22:06.447Z,95.15
2022-11-04T02:25:17.106Z,93.07
2022-11-04T02:28:07.955Z,99.21
2022-11-04T02:31:01.225Z,95.38
2022-11-04T02:33:42.163Z,92.70
2022-11-04T02:36:20.887Z,91.20
2022-11-04T02:39:06.244Z,94.97
2022-11-04T02:41:33.390Z,98.72
2022-11-04T02:44:25.549Z,96.26
2022-11-04T02:47:08.640Z,94.41
2022-11-04T02:49:41.281Z,94.78
2022-11-04T02:52:14.954Z,97.90
2022-11-04T02:54:48.197Z,98.65
2022-11-04T02:57:24.632Z,99.23
2022-11-04T03:00:01.623Z,100.00
2022-11-04T03:02:54.346Z,98.57
2022-11-04T03:05:29.252Z,100.00
2022-11-04T03:08:01.133Z,98.60
2022-11-04T03:10:36.299Z,97.25
2022-11-04T03:13:11.669Z,95.99
2022-11-04T03:15:40.972Z,96.18
2022-11-04T03:18:22.745Z,94.35
2022-11-04T03:20:51.673Z,97.73
2022-11-04T03:23:19.339Z,95.29
2022-11-04T03:25:50.333Z,94.60
2022-11-04T03:28:32.755Z,93.98
2022-11-04T03:31:03.383Z,95.77
2022-11-04T03:33:36.089Z,98.20
2022-11-04T03:36:04.484Z,97.61
2022-11-04T03:38:31.517Z,99.22
2022-11-04T03:41:01.472Z,99.34
2022-11-04T03:43:30.814Z,98.34
2022-11-04T03:45:58.208Z,99.71
2022-11-04T03:48:25.776Z,99.21
2022-11-04T03:50:52.888Z,98.42
2022-11-04T03:53:24.176Z,97.79
2022-11-04T03:56:13.248Z,98.19
2022-11-04T03:58:45.744Z,98.11
2022-11-04T04:01:44.669Z,100.00
2022-11-04T04:04:43.640Z,97.94
2022-11-04T04:07:16.793Z,94.77
2022-11-04T04:09:50.111Z,97.31
2022-11-04T04:12:27.614Z,100.00
2022-11-04T04:15:07.550Z,100.00
2022-11-04T04:17:59.183Z,100.00
2022-11-04T04:20:29.533Z,100.00
2022-11-04T04:23:02.247Z,100.00
2022-11-04T04:25:50.580Z,99.39
2022-11-04T04:28:19.777Z,97.82
2022-11-04T04:30:47.140Z,95.81
2022-11-04T04:33:17.738Z,97.46
2022-11-04T04:35:53.140Z,93.66
2022-11-04T04:38:40.638Z,97.52
2022-11-04T04:41:37.352Z,96.73
2022-11-04T04:44:42.916Z,100.00
2022-11-04T04:47:13.677Z,100.00
2022-11-04T04:49:58.301Z,99.88
2022-11-04T04:52:28.167Z,98.35
2022-11-04T04:54:55.165Z,100.00
2022-11-04T04:57:22.250Z,99.70
2022-11-04T04:59:49.073Z,100.00
2022-11-04T05:02:16.342Z,100.00
2022-11-04T05:04:43.400Z,98.11
2022-11-04T05:07:10.317Z,96.28
2022-11-04T05:09:37.470Z,94.21
2022-11-04T05:12:04.470Z,91.88
2022-11-04T05:14:31.468Z,86.33
2022-11-04T05:16:58.399Z,85.33
2022-11-04T05:19:25.277Z,82.95
2022-11-04T05:21:52.257Z,80.52
2022-11-04T05:24:19.192Z,76.06
2022-11-04T05:26:46.130Z,74.12
2022-11-04T05:31:44.915Z,72.82
2022-11-04T05:34:13.183Z,71.14
2022-11-04T05:36:40.351Z,66.30
2022-11-04T05:39:07.451Z,66.25
2022-11-04T05:41:35.160Z,65.91
2022-11-04T05:44:04.598Z,61.82
2022-11-04T05:46:31.744Z,62.82
2022-11-04T05:48:58.732Z,58.47
2022-11-04T05:51:27.715Z,55.18
2022-11-04T05:53:54.976Z,51.67
2022-11-04T05:56:22.018Z,54.16
2022-11-04T05:58:49.014Z,54.88
2022-11-04T06:01:27.187Z,53.95
2022-11-04T06:03:54.746Z,54.83
2022-11-04T06:06:23.333Z,54.46
2022-11-04T06:08:51.599Z,53.64
2022-11-04T06:11:19.162Z,50.98
2022-11-04T06:13:46.040Z,52.41
2022-11-04T06:16:12.902Z,51.64
2022-11-04T06:18:39.825Z,53.09
2022-11-04T06:21:15.588Z,51.65
2022-11-04T06:23:43.492Z,54.43
2022-11-04T06:26:12.017Z,53.80
2022-11-04T06:28:39.259Z,51.68
2022-11-04T06:31:08.759Z,52.86
2022-11-04T06:33:37.029Z,51.72
2022-11-04T06:36:06.756Z,50.89
2022-11-04T06:38:35.486Z,49.94
2022-11-04T06:41:02.455Z,51.41
2022-11-04T06:43:29.518Z,51.11
2022-11-04T06:45:58.571Z,51.65
2022-11-04T06:48:26.182Z,52.16
2022-11-04T06:50:53.322Z,52.25
2022-11-04T06:53:20.213Z,52.21
2022-11-04T06:55:47.192Z,52.54
2022-11-04T06:58:14.066Z,52.77
2022-11-04T07:00:40.984Z,53.04
2022-11-04T07:03:09.969Z,53.57
2022-11-04T07:05:37.265Z,52.74
2022-11-04T07:08:04.352Z,53.46
2022-11-04T07:10:31.211Z,53.31
2022-11-04T07:12:58.055Z,53.03
2022-11-04T07:15:27.649Z,52.41
2022-11-04T07:17:54.636Z,50.86
2022-11-04T07:20:21.526Z,49.23
2022-11-04T07:22:48.409Z,49.45
2022-11-04T07:25:15.467Z,49.21
2022-11-04T07:27:42.408Z,49.56
2022-11-04T07:30:11.105Z,49.00
2022-11-04T07:32:37.954Z,50.84
2022-11-04T07:35:05.127Z,50.10
2022-11-04T07:37:31.975Z,50.42
2022-11-04T07:39:58.850Z,49.18
2022-11-04T07:42:25.726Z,52.40
2022-11-04T07:44:55.484Z,52.26
2022-11-04T07:47:22.441Z,54.14
2022-11-04T07:49:49.403Z,54.74
2022-11-04T07:52:16.298Z,54.48
2022-11-04T07:54:43.200Z,55.26
2022-11-04T07:57:10.070Z,53.14
2022-11-04T07:59:36.941Z,51.67
2022-11-04T08:02:04.219Z,52.70
2022-11-04T08:04:31.272Z,52.78
2022-11-04T08:06:58.133Z,53.11
2022-11-04T08:09:25.182Z,52.77
2022-11-04T08:11:52.274Z,53.13
2022-11-04T08:14:19.156Z,52.71
2022-11-04T08:16:46.296Z,53.47
2022-11-04T08:19:13.959Z,52.19
2022-11-04T08:21:40.870Z,53.00
2022-11-04T08:24:07.810Z,50.12
2022-11-04T08:26:35.080Z,50.45
2022-11-04T08:29:02.607Z,48.24
2022-11-04T08:31:31.729Z,46.76
2022-11-04T08:33:58.650Z,49.87
2022-11-04T08:36:32.970Z,47.56
2022-11-04T08:39:03.246Z,49.52
2022-11-04T08:41:34.661Z,51.86
2022-11-04T08:44:04.236Z,51.06
2022-11-04T08:46:37.719Z,51.20
2022-11-04T08:49:09.928Z,52.41
2022-11-04T08:51:41.608Z,53.36
2022-11-04T08:54:08.830Z,53.44
2022-11-04T08:56:37.990Z,56.96
2022-11-04T08:59:05.537Z,56.59
2022-11-04T09:01:36.003Z,55.88
2022-11-04T09:04:04.173Z,55.20
2022-11-04T09:06:40.899Z,55.60
2022-11-04T09:09:11.008Z,54.80
2022-11-04T09:11:41.301Z,56.00
2022-11-04T09:14:10.575Z,57.35
2022-11-04T09:16:39.063Z,56.18
2022-11-04T09:19:06.466Z,56.42
2022-11-04T09:21:33.651Z,57.40
2022-11-04T09:24:00.617Z,56.28
2022-11-04T09:26:28.304Z,56.44
2022-11-04T09:28:56.736Z,57.55
2022-11-04T09:31:25.199Z,56.46
2022-11-04T09:33:52.084Z,59.15
2022-11-04T09:36:19.099Z,59.97
2022-11-04T09:38:45.946Z,60.03
2022-11-04T09:41:49.116Z,60.15
2022-11-04T09:45:07.366Z,58.58
2022-11-04T09:47:34.839Z,58.80
2022-11-04T09:50:06.542Z,59.39
2022-11-04T09:52:41.892Z,59.18
2022-11-04T09:55:30.680Z,58.90
2022-11-04T09:57:58.822Z,59.55
2022-11-04T10:00:26.171Z,59.78
2022-11-04T10:03:04.998Z,59.40
2022-11-04T10:06:02.182Z,61.38
2022-11-04T10:08:37.918Z,60.77
2022-11-04T10:11:47.533Z,61.92
2022-11-04T10:14:37.393Z,63.17
2022-11-04T10:17:21.369Z,63.30
2022-11-04T10:20:00.036Z,62.08
2022-11-04T10:22:45.572Z,63.19
2022-11-04T10:25:22.321Z,63.46
2022-11-04T10:27:51.298Z,63.49
2022-11-04T10:30:23.767Z,61.40
2022-11-04T10:33:03.358Z,61.58
2022-11-04T10:36:00.227Z,61.80
2022-11-04T10:38:38.573Z,62.39
2022-11-04T10:41:35.611Z,63.31
2022-11-04T10:44:20.451Z,63.86
2022-11-04T10:47:04.784Z,64.45
2022-11-04T10:52:46.003Z,61.13
2022-11-04T10:55:38.756Z,60.92
2022-11-04T10:58:17.309Z,60.77
2022-11-04T11:00:44.522Z,62.52
2022-11-04T11:03:31.681Z,61.32
2022-11-04T11:06:14.679Z,62.61
2022-11-04T11:08:42.941Z,63.15
2022-11-04T11:11:11.217Z,64.49
2022-11-04T11:13:41.365Z,63.21
2022-11-04T11:16:28.888Z,66.04
2022-11-04T11:19:15.936Z,64.09
2022-11-04T11:21:49.218Z,64.75
2022-11-04T11:24:23.602Z,64.19
2022-11-04T11:26:56.708Z,64.42
2022-11-04T11:29:40.483Z,64.11
2022-11-04T11:32:43.548Z,63.67
2022-11-04T11:35:17.951Z,65.15
2022-11-04T11:37:48.773Z,66.04
2022-11-04T11:40:32.202Z,65.19
2022-11-04T11:43:02.728Z,63.60
2022-11-04T11:45:30.123Z,66.05
2022-11-04T11:47:57.102Z,64.97
2022-11-04T11:50:32.721Z,66.80
2022-11-04T11:53:35.617Z,66.90
2022-11-04T11:56:40.411Z,63.79
2022-11-04T12:02:36.363Z,66.98
2022-11-04T12:11:20.900Z,67.23
2022-11-04T12:13:57.472Z,67.60
2022-11-04T12:16:34.412Z,70.14
2022-11-04T12:19:32.207Z,70.35
2022-11-04T12:22:34.475Z,71.03
2022-11-04T12:25:10.180Z,69.89
2022-11-04T12:27:47.608Z,69.07
2022-11-04T12:30:21.240Z,70.69
2022-11-04T12:33:05.089Z,72.33
2022-11-04T12:36:17.162Z,72.94
2022-11-04T12:39:20.088Z,72.53
2022-11-04T12:42:32.837Z,75.81
2022-11-04T12:45:26.037Z,74.79
2022-11-04T12:48:00.419Z,71.85
2022-11-04T12:50:50.583Z,72.12
2022-11-04T12:53:26.416Z,73.16
2022-11-04T12:56:14.888Z,72.37
2022-11-04T12:58:56.613Z,75.01
2022-11-04T13:01:41.087Z,75.58
2022-11-04T13:04:17.106Z,73.58
2022-11-04T13:06:54.029Z,76.41
2022-11-04T13:09:38.912Z,75.96
2022-11-04T13:12:14.114Z,78.15
2022-11-04T13:15:05.392Z,80.61
2022-11-04T13:17:40.153Z,81.59
2022-11-04T13:20:15.613Z,83.28
2022-11-04T13:22:51.949Z,83.25
2022-11-04T13:25:33.703Z,84.88
2022-11-04T13:28:02.451Z,85.72
2022-11-04T13:30:41.125Z,85.94
2022-11-04T13:33:35.885Z,86.16
2022-11-04T13:36:30.721Z,85.84
2022-11-04T13:39:04.800Z,85.99
2022-11-04T13:41:58.730Z,86.28
2022-11-04T13:44:29.075Z,86.66
2022-11-04T13:47:01.606Z,86.71
2022-11-04T13:49:33.956Z,87.32
2022-11-04T13:52:11.531Z,88.05
2022-11-04T13:54:38.915Z,89.13
2022-11-04T13:57:10.780Z,89.53
2022-11-04T13:59:37.961Z,90.66
2022-11-04T14:02:19.919Z,91.84
2022-11-04T14:04:47.457Z,92.08
2022-11-04T14:07:18.112Z,92.02
2022-11-04T14:09:45.048Z,92.73
2022-11-04T14:12:13.504Z,91.97
2022-11-04T14:14:48.041Z,92.43
2022-11-04T14:17:32.973Z,93.02
2022-11-04T14:20:19.495Z,92.63
2022-11-04T14:22:53.011Z,92.90
2022-11-04T14:25:58.723Z,93.49
2022-11-04T14:28:28.636Z,94.10
2022-11-04T14:31:04.654Z,95.34
2022-11-04T14:33:42.642Z,94.50
2022-11-04T14:36:21.759Z,95.58
2022-11-04T14:38:56.796Z,95.91
2022-11-04T14:41:40.161Z,97.72
2022-11-04T14:44:18.392Z,98.54
2022-11-04T14:46:47.838Z,98.37
2022-11-04T14:49:39.949Z,99.08
2022-11-04T14:52:14.545Z,98.65
2022-11-04T14:54:41.853Z,99.85
2022-11-04T14:57:23.079Z,99.96
2022-11-04T14:59:52.370Z,100.00
2022-11-04T15:02:23.636Z,100.00
2022-11-04T15:05:00.307Z,100.00
2022-11-04T15:07:39.535Z,100.00
2022-11-04T15:10:28.059Z,100.00
2022-11-04T15:13:00.900Z,100.00
2022-11-04T15:15:31.671Z,100.00
2022-11-04T15:18:27.138Z,100.00
2022-11-04T15:20:58.215Z,100.00
2022-11-04T15:23:29.126Z,100.00
2022-11-04T15:25:57.946Z,100.00
2022-11-04T15:28:28.813Z,100.00
2022-11-04T15:31:07.856Z,100.00
2022-11-04T15:33:40.767Z,100.00
2022-11-04T15:36:14.130Z,100.00
2022-11-04T15:38:47.275Z,100.00
2022-11-04T15:41:38.304Z,100.00
2022-11-04T15:44:14.824Z,100.00
2022-11-04T15:46:48.513Z,100.00
2022-11-04T15:49:27.289Z,100.00
2022-11-04T15:52:06.264Z,100.00
2022-11-04T15:54:39.633Z,100.00
2022-11-04T15:57:18.843Z,100.00
2022-11-04T16:00:07.671Z,100.00
2022-11-04T16:02:55.344Z,100.00
2022-11-04T16:05:40.056Z,100.00
2022-11-04T16:08:22.268Z,100.00
2022-11-04T16:10:50.176Z,100.00
2022-11-04T16:13:17.096Z,100.00
2022-11-04T16:15:49.479Z,100.00
2022-11-04T16:18:29.794Z,100.00
2022-11-04T16:20:57.846Z,100.00
2022-11-04T16:23:28.317Z,100.00
2022-11-04T16:26:01.467Z,100.00
2022-11-04T16:28:31.600Z,100.00
2022-11-04T16:31:21.420Z,100.00
2022-11-04T16:33:49.428Z,100.00
2022-11-04T16:36:30.903Z,100.00
2022-11-04T16:39:09.083Z,100.00
2022-11-04T16:41:38.836Z,100.00
2022-11-04T16:44:15.747Z,100.00
2022-11-04T16:46:42.712Z,100.00
2022-11-04T16:49:14.464Z,100.00
2022-11-04T16:51:41.522Z,100.00
2022-11-04T16:54:08.977Z,100.00
2022-11-04T16:56:36.140Z,100.00
2022-11-04T16:59:03.084Z,100.00
2022-11-04T17:01:30.222Z,100.00
2022-11-04T17:03:57.252Z,100.00
2022-11-04T17:06:24.366Z,100.00
2022-11-04T17:08:51.397Z,100.00
2022-11-04T17:11:18.408Z,100.00
2022-11-04T17:13:45.236Z,100.00
2022-11-04T17:16:14.057Z,100.00
2022-11-04T17:18:41.435Z,100.00
2022-11-04T17:21:13.345Z,100.00
2022-11-04T17:23:40.316Z,100.00
2022-11-04T17:26:07.262Z,100.00
2022-11-04T17:28:34.182Z,100.00
2022-11-04T17:31:02.715Z,100.00
2022-11-04T17:33:29.974Z,100.00
2022-11-04T17:35:57.037Z,100.00
2022-11-04T17:38:23.880Z,100.00
2022-11-04T17:41:09.433Z,100.00
2022-11-04T17:43:54.521Z,100.00
2022-11-04T17:46:41.808Z,100.00
2022-11-04T17:49:13.558Z,100.00
2022-11-04T17:51:43.084Z,100.00
2022-11-04T17:54:10.828Z,100.00
2022-11-04T17:56:38.303Z,100.00
2022-11-04T17:59:05.206Z,100.00
2022-11-04T18:01:33.701Z,100.00
2022-11-04T18:04:00.876Z,100.00
2022-11-04T18:06:30.706Z,100.00
2022-11-04T18:08:59.274Z,100.00
2022-11-04T18:11:47.021Z,100.00
2022-11-04T18:14:16.905Z,100.00
2022-11-04T18:16:46.484Z,100.00
2022-11-04T18:19:14.436Z,100.00
2022-11-04T18:21:41.547Z,100.00
2022-11-04T18:24:09.737Z,100.00
2022-11-04T18:26:37.009Z,100.00
2022-11-04T18:29:05.792Z,100.00
2022-11-04T18:31:35.713Z,100.00
2022-11-04T18:34:07.753Z,100.00
2022-11-04T18:36:35.191Z,100.00
2022-11-04T18:39:02.211Z,100.00
2022-11-04T18:41:30.122Z,100.00
2022-11-04T18:43:57.383Z,100.00
2022-11-04T18:46:24.274Z,100.00
2022-11-04T18:48:51.872Z,100.00
2022-11-04T18:51:22.203Z,100.00
2022-11-04T18:53:50.604Z,100.00
2022-11-04T18:56:22.841Z,100.00
2022-11-04T18:58:50.167Z,100.00
2022-11-04T19:01:22.037Z,100.00
2022-11-04T19:03:50.074Z,100.00
2022-11-04T19:06:20.160Z,100.00
2022-11-04T19:08:47.815Z,100.00
2022-11-04T19:11:19.448Z,100.00
2022-11-04T19:13:58.871Z,100.00
2022-11-04T19:16:26.535Z,100.00
2022-11-04T19:18:54.945Z,100.00
2022-11-04T19:21:24.933Z,100.00
2022-11-04T19:23:51.873Z,100.00
2022-11-04T19:26:22.635Z,100.00
2022-11-04T19:28:50.391Z,100.00
2022-11-04T19:31:23.433Z,100.00
2022-11-04T19:33:50.817Z,100.00
2022-11-04T19:36:22.370Z,100.00
2022-11-04T19:38:53.172Z,100.00
2022-11-04T19:41:39.724Z,100.00
2022-11-04T19:44:12.092Z,100.00
2022-11-04T19:46:39.864Z,100.00
2022-11-04T19:49:07.641Z,100.00
2022-11-04T19:51:35.802Z,100.00
2022-11-04T19:54:03.510Z,100.00
2022-11-04T19:56:33.554Z,100.00
2022-11-04T19:59:05.834Z,100.00
2022-11-04T20:01:35.017Z,100.00
2022-11-04T20:04:03.636Z,100.00
2022-11-04T20:06:33.297Z,100.00
2022-11-04T20:09:06.051Z,100.00
2022-11-04T20:11:34.756Z,100.00
2022-11-04T20:14:07.576Z,100.00
2022-11-04T20:16:39.658Z,100.00
2022-11-04T20:19:07.037Z,100.00
2022-11-04T20:21:36.528Z,100.00
2022-11-04T20:24:08.994Z,100.00
2022-11-04T20:26:37.289Z,100.00
2022-11-04T20:29:05.895Z,100.00
2022-11-04T20:31:35.297Z,100.00
2022-11-04T20:34:05.161Z,100.00
2022-11-04T20:36:32.295Z,100.00
2022-11-04T20:39:00.899Z,100.00
2022-11-04T20:41:27.892Z,100.00
2022-11-04T20:43:58.589Z,100.00
2022-11-04T20:46:30.260Z,100.00
2022-11-04T20:48:58.478Z,100.00
2022-11-04T20:51:31.585Z,100.00
2022-11-04T20:54:01.417Z,100.00
2022-11-04T20:56:31.472Z,100.00
2022-11-04T20:59:00.133Z,100.00
2022-11-04T21:01:35.843Z,100.00
2022-11-04T21:04:07.428Z,100.00
2022-11-04T21:06:37.749Z,100.00
2022-11-04T21:09:11.323Z,100.00
2022-11-04T21:11:39.770Z,100.00
2022-11-04T21:14:08.520Z,100.00
2022-11-04T21:16:36.012Z,100.00
2022-11-04T21:19:04.351Z,100.00
2022-11-04T21:21:32.658Z,100.00
2022-11-04T21:24:02.923Z,100.00
2022-11-04T21:26:32.976Z,100.00
2022-11-04T21:29:02.672Z,100.00
2022-11-04T21:31:31.612Z,100.00
2022-11-04T21:33:58.961Z,100.00
2022-11-04T21:36:25.848Z,100.00
2022-11-04T21:38:52.823Z,100.00
2022-11-04T21:41:24.555Z,100.00
2022-11-04T21:43:59.137Z,100.00
2022-11-04T21:46:27.384Z,100.00
2022-11-04T21:48:55.642Z,100.00
2022-11-04T21:51:25.557Z,100.00
2022-11-04T21:53:52.712Z,100.00
2022-11-04T21:56:22.219Z,100.00
2022-11-04T21:58:49.260Z,100.00
2022-11-04T22:01:19.298Z,100.00
2022-11-04T22:03:51.295Z,100.00
2022-11-04T22:06:18.629Z,100.00
2022-11-04T22:08:54.293Z,100.00
2022-11-04T22:11:25.629Z,100.00
2022-11-04T22:14:00.445Z,100.00
2022-11-04T22:16:29.505Z,100.00
2022-11-04T22:18:58.806Z,100.00
2022-11-04T22:21:27.544Z,100.00
2022-11-04T22:23:55.541Z,100.00
2022-11-04T22:26:25.593Z,100.00
2022-11-04T22:28:53.774Z,100.00
2022-11-04T22:31:36.669Z,100.00
2022-11-04T22:34:04.929Z,100.00
2022-11-04T22:36:33.328Z,100.00
2022-11-04T22:39:00.528Z,100.00
2022-11-04T22:41:30.354Z,100.00
2022-11-04T22:43:57.734Z,100.00
2022-11-04T22:46:28.435Z,100.00
2022-11-04T22:48:55.638Z,100.00
2022-11-04T22:51:22.581Z,100.00
2022-11-04T22:53:57.891Z,100.00
2022-11-04T22:56:26.055Z,100.00
2022-11-04T22:58:54.296Z,100.00
2022-11-04T23:01:21.941Z,100.00
2022-11-04T23:03:52.080Z,100.00
2022-11-04T23:06:19.892Z,100.00
2022-11-04T23:08:46.945Z,100.00
2022-11-04T23:11:36.186Z,100.00
2022-11-04T23:14:21.750Z,100.00
2022-11-04T23:17:10.393Z,100.00
2022-11-04T23:19:38.407Z,100.00
2022-11-04T23:22:24.420Z,100.00
2022-11-04T23:25:06.497Z,100.00
2022-11-04T23:27:57.740Z,100.00
2022-11-04T23:30:26.114Z,100.00
2022-11-04T23:32:57.359Z,100.00
2022-11-04T23:35:53.958Z,100.00
2022-11-04T23:38:21.190Z,100.00
2022-11-04T23:41:09.270Z,100.00
2022-11-04T23:43:36.496Z,100.00
2022-11-04T23:46:22.206Z,100.00
2022-11-04T23:49:07.755Z,100.00
2022-11-04T23:51:53.247Z,100.00
2022-11-04T23:54:38.912Z,100.00
2022-11-04T23:57:34.209Z,100.00
